createdAt,value
2022-10-06T00:00:48.071Z,30.20
2022-10-06T00:03:16.275Z,30.50
2022-10-06T00:05:44.319Z,30.70
2022-10-06T00:08:12.396Z,30.90
2022-10-06T00:10:41.932Z,30.90
2022-10-06T00:13:09.904Z,30.70
2022-10-06T00:15:37.869Z,30.60
2022-10-06T00:18:06.048Z,30.40
2022-10-06T00:20:34.079Z,30.30
2022-10-06T00:23:02.220Z,30.10
2022-10-06T00:25:30.268Z,30.00
2022-10-06T00:27:59.665Z,29.90
2022-10-06T00:30:28.412Z,29.90
2022-10-06T00:32:57.610Z,30.00
2022-10-06T00:35:25.791Z,30.30
2022-10-06T00:37:54.001Z,30.60
2022-10-06T00:40:22.046Z,30.60
2022-10-06T00:42:52.141Z,30.40
2022-10-06T00:45:22.706Z,30.20
2022-10-06T00:47:50.786Z,30.10
2022-10-06T00:50:18.832Z,30.00
2022-10-06T00:52:46.904Z,30.00
2022-10-06T00:55:15.483Z,29.90
2022-10-06T00:57:43.474Z,29.80
2022-10-06T01:00:12.551Z,29.70
2022-10-06T01:02:43.645Z,30.00
2022-10-06T01:05:13.057Z,30.30
2022-10-06T01:07:41.022Z,30.50
2022-10-06T01:10:11.761Z,30.40
2022-10-06T01:12:39.942Z,30.20
2022-10-06T01:15:09.121Z,30.10
2022-10-06T01:17:38.771Z,30.00
2022-10-06T01:20:09.958Z,29.90
2022-10-06T01:22:40.248Z,29.90
2022-10-06T01:25:09.243Z,29.80
2022-10-06T01:27:38.088Z,29.70
2022-10-06T01:30:07.367Z,29.90
2022-10-06T01:32:36.637Z,30.20
2022-10-06T01:35:05.050Z,30.40
2022-10-06T01:37:33.057Z,30.40
2022-10-06T01:40:02.427Z,30.20
2022-10-06T01:42:31.901Z,30.10
2022-10-06T01:45:00.425Z,30.00
2022-10-06T01:47:28.427Z,30.00
2022-10-06T01:49:56.451Z,29.90
2022-10-06T01:52:26.541Z,29.80
2022-10-06T01:54:54.973Z,29.70
2022-10-06T01:57:24.470Z,29.70
2022-10-06T01:59:54.801Z,30.00
2022-10-06T02:02:23.173Z,30.10
2022-10-06T02:04:51.158Z,30.50
2022-10-06T02:07:19.198Z,30.70
2022-10-06T02:09:47.197Z,30.90
2022-10-06T02:12:15.421Z,30.90
2022-10-06T02:14:44.761Z,30.80
2022-10-06T02:17:12.810Z,30.60
2022-10-06T02:19:40.929Z,30.40
2022-10-06T02:22:08.978Z,30.20
2022-10-06T02:24:36.949Z,30.10
2022-10-06T02:27:05.333Z,30.00
2022-10-06T02:29:33.419Z,30.00
2022-10-06T02:32:02.780Z,29.90
2022-10-06T02:34:30.713Z,30.00
2022-10-06T02:36:58.725Z,30.20
2022-10-06T02:39:26.666Z,30.50
2022-10-06T02:41:54.658Z,30.50
2022-10-06T02:44:23.364Z,30.30
2022-10-06T02:46:51.419Z,30.20
2022-10-06T02:49:20.835Z,30.10
2022-10-06T02:51:48.805Z,30.10
2022-10-06T02:54:16.756Z,30.00
2022-10-06T02:56:45.698Z,29.90
2022-10-06T02:59:13.794Z,29.80
2022-10-06T03:01:41.978Z,29.80
2022-10-06T03:04:11.710Z,30.10
2022-10-06T03:06:41.645Z,30.30
2022-10-06T03:09:10.172Z,30.50
2022-10-06T03:11:39.127Z,30.40
2022-10-06T03:14:07.307Z,30.30
2022-10-06T03:16:36.349Z,30.10
2022-10-06T03:19:04.687Z,30.00
2022-10-06T03:21:34.059Z,30.00
2022-10-06T03:24:03.530Z,29.90
2022-10-06T03:26:32.951Z,29.90
2022-10-06T03:29:01.378Z,29.80
2022-10-06T03:31:29.705Z,29.90
2022-10-06T03:33:57.793Z,30.20
2022-10-06T03:36:27.319Z,30.40
2022-10-06T03:38:55.580Z,30.40
2022-10-06T03:41:25.952Z,30.20
2022-10-06T03:43:54.730Z,30.10
2022-10-06T03:46:24.540Z,30.00
2022-10-06T03:48:52.947Z,30.00
2022-10-06T03:51:22.162Z,30.00
2022-10-06T03:53:51.000Z,29.90
2022-10-06T03:56:20.959Z,29.70
2022-10-06T03:58:51.930Z,29.80
2022-10-06T04:01:25.734Z,30.00
2022-10-06T04:03:54.741Z,30.40
2022-10-06T04:06:23.165Z,30.60
2022-10-06T04:08:51.745Z,30.70
2022-10-06T04:11:21.402Z,31.00
2022-10-06T04:13:52.723Z,31.10
2022-10-06T04:16:21.926Z,30.80
2022-10-06T04:18:50.824Z,30.70
2022-10-06T04:21:19.437Z,30.50
2022-10-06T04:23:47.500Z,30.30
2022-10-06T04:26:16.805Z,30.10
2022-10-06T04:28:50.070Z,30.00
2022-10-06T04:31:24.645Z,30.00
2022-10-06T04:33:54.295Z,30.00
2022-10-06T04:36:24.197Z,30.00
2022-10-06T04:39:12.464Z,30.30
2022-10-06T04:42:30.236Z,30.50
2022-10-06T04:49:04.176Z,30.30
2022-10-06T04:51:33.095Z,30.00
2022-10-06T04:54:02.806Z,30.00
2022-10-06T04:56:34.063Z,29.90
2022-10-06T04:59:07.840Z,29.80
2022-10-06T05:01:39.620Z,29.80
2022-10-06T05:04:19.512Z,29.80
2022-10-06T05:06:59.894Z,30.00
2022-10-06T05:09:28.844Z,30.30
2022-10-06T05:12:01.665Z,30.40
2022-10-06T05:14:30.272Z,30.10
2022-10-06T05:16:59.213Z,30.00
2022-10-06T05:19:29.353Z,30.00
2022-10-06T05:21:58.049Z,30.00
2022-10-06T05:24:26.558Z,29.80
2022-10-06T05:27:01.508Z,29.80
2022-10-06T05:29:30.519Z,29.70
2022-10-06T05:32:02.109Z,29.70
2022-10-06T05:35:11.465Z,30.00
2022-10-06T05:37:40.299Z,30.40
2022-10-06T05:40:09.509Z,30.40
2022-10-06T05:42:39.525Z,30.20
2022-10-06T05:45:09.341Z,30.00
2022-10-06T05:47:38.936Z,30.00
2022-10-06T05:50:10.310Z,29.90
2022-10-06T05:52:40.656Z,29.90
2022-10-06T05:55:11.236Z,29.80
2022-10-06T05:57:39.369Z,29.80
2022-10-06T06:00:08.834Z,29.60
2022-10-06T06:02:37.167Z,30.00
2022-10-06T06:05:06.048Z,30.30
2022-10-06T06:07:35.562Z,30.40
2022-10-06T06:10:03.634Z,30.50
2022-10-06T06:12:31.713Z,30.80
2022-10-06T06:15:16.911Z,31.00
2022-10-06T06:17:44.931Z,30.90
2022-10-06T06:20:13.196Z,30.50
2022-10-06T06:22:42.592Z,30.40
2022-10-06T06:25:12.945Z,30.20
2022-10-06T06:27:42.141Z,30.10
2022-10-06T06:30:11.204Z,30.00
2022-10-06T06:32:39.680Z,30.00
2022-10-06T06:35:08.586Z,29.90
2022-10-06T06:37:36.546Z,30.00
2022-10-06T06:40:06.546Z,30.20
2022-10-06T06:42:34.908Z,30.40
2022-10-06T06:45:02.876Z,30.50
2022-10-06T06:47:30.891Z,30.20
2022-10-06T06:50:00.267Z,30.10
2022-10-06T06:52:28.414Z,30.10
2022-10-06T06:54:57.159Z,30.00
2022-10-06T06:57:26.587Z,29.90
2022-10-06T06:59:56.034Z,29.80
2022-10-06T07:02:26.577Z,29.70
2022-10-06T07:04:54.826Z,29.70
2022-10-06T07:07:22.865Z,29.90
2022-10-06T07:09:50.861Z,30.90
2022-10-06T07:12:19.197Z,31.00
2022-10-06T07:15:07.910Z,30.30
2022-10-06T07:17:53.956Z,30.10
2022-10-06T07:20:39.460Z,30.00
2022-10-06T07:23:25.117Z,29.90
2022-10-06T07:25:53.823Z,29.80
2022-10-06T07:28:21.902Z,29.70
2022-10-06T07:30:52.951Z,29.70
2022-10-06T07:33:20.901Z,29.60
2022-10-06T07:35:51.866Z,29.90
2022-10-06T07:38:24.467Z,30.10
2022-10-06T07:41:17.951Z,30.30
2022-10-06T07:43:43.554Z,30.10
2022-10-06T07:46:13.075Z,30.00
2022-10-06T07:48:41.329Z,30.00
2022-10-06T07:51:13.780Z,29.90
2022-10-06T07:53:41.750Z,29.80
2022-10-06T07:56:11.237Z,29.70
2022-10-06T07:58:39.711Z,29.60
2022-10-06T08:01:08.330Z,29.60
2022-10-06T08:03:39.033Z,29.70
2022-10-06T08:06:09.778Z,30.00
2022-10-06T08:08:37.966Z,30.10
2022-10-06T08:11:06.866Z,30.50
2022-10-06T08:13:36.296Z,30.90
2022-10-06T08:16:05.417Z,31.00
2022-10-06T08:18:49.570Z,30.60
2022-10-06T08:21:18.970Z,30.50
2022-10-06T08:23:47.369Z,30.20
2022-10-06T08:26:15.651Z,30.00
2022-10-06T08:28:45.162Z,29.90
2022-10-06T08:31:13.407Z,29.90
2022-10-06T08:33:42.400Z,29.80
2022-10-06T08:36:14.324Z,29.70
2022-10-06T08:38:42.579Z,29.70
2022-10-06T08:41:20.797Z,29.90
2022-10-06T08:43:51.602Z,29.90
2022-10-06T08:46:22.466Z,30.30
2022-10-06T08:48:53.287Z,30.00
2022-10-06T08:51:40.998Z,30.60
2022-10-06T08:54:11.495Z,29.90
2022-10-06T08:56:48.520Z,29.80
2022-10-06T08:59:16.480Z,29.70
2022-10-06T09:01:46.026Z,29.60
2022-10-06T09:04:16.769Z,29.50
2022-10-06T09:06:48.555Z,29.50
2022-10-06T09:09:25.343Z,30.00
2022-10-06T09:11:59.092Z,30.30
2022-10-06T09:14:31.436Z,30.10
2022-10-06T09:17:01.017Z,30.50
2022-10-06T09:19:42.239Z,29.80
2022-10-06T09:22:17.321Z,29.80
2022-10-06T09:24:50.151Z,29.70
2022-10-06T09:27:19.864Z,29.60
2022-10-06T09:29:49.411Z,29.50
2022-10-06T09:32:17.904Z,29.40
2022-10-06T09:34:49.889Z,29.40
2022-10-06T09:37:28.469Z,30.00
2022-10-06T09:39:56.719Z,30.20
2022-10-06T09:42:27.007Z,30.20
2022-10-06T09:44:58.487Z,29.70
2022-10-06T09:47:36.093Z,29.70
2022-10-06T09:50:12.509Z,29.70
2022-10-06T09:52:42.127Z,29.60
2022-10-06T09:55:12.627Z,29.50
2022-10-06T09:57:41.064Z,29.40
2022-10-06T10:00:27.570Z,29.40
2022-10-06T10:02:58.257Z,29.40
2022-10-06T10:05:29.830Z,29.70
2022-10-06T10:08:10.072Z,30.00
2022-10-06T10:10:38.220Z,30.30
2022-10-06T10:13:19.135Z,30.50
2022-10-06T10:15:55.293Z,30.70
2022-10-06T10:18:26.729Z,30.60
2022-10-06T10:20:57.584Z,30.00
2022-10-06T10:23:31.796Z,30.00
2022-10-06T10:26:22.563Z,29.90
2022-10-06T10:29:37.992Z,29.80
2022-10-06T10:32:11.926Z,29.70
2022-10-06T10:34:58.637Z,29.60
2022-10-06T10:37:31.934Z,29.50
2022-10-06T10:40:02.509Z,29.50
2022-10-06T10:42:33.253Z,29.80
2022-10-06T10:45:02.044Z,30.00
2022-10-06T10:47:31.712Z,30.70
2022-10-06T10:50:01.511Z,29.90
2022-10-06T10:52:30.479Z,29.80
2022-10-06T10:55:06.931Z,29.80
2022-10-06T10:57:37.092Z,29.70
2022-10-06T11:00:07.585Z,29.60
2022-10-06T11:02:38.313Z,29.60
2022-10-06T11:05:13.536Z,29.50
2022-10-06T11:07:44.401Z,29.40
2022-10-06T11:10:15.115Z,30.00
2022-10-06T11:12:57.019Z,29.70
2022-10-06T11:15:31.513Z,29.80
2022-10-06T11:18:01.440Z,29.90
2022-10-06T11:20:40.099Z,29.80
2022-10-06T11:23:22.989Z,30.10
2022-10-06T11:25:55.784Z,29.60
2022-10-06T11:28:25.878Z,29.60
2022-10-06T11:30:59.804Z,29.50
2022-10-06T11:33:30.468Z,29.40
2022-10-06T11:35:58.448Z,29.50
2022-10-06T11:38:28.156Z,29.50
2022-10-06T11:41:10.134Z,29.50
2022-10-06T11:43:42.313Z,29.50
2022-10-06T11:46:21.712Z,30.00
2022-10-06T11:48:49.915Z,29.80
2022-10-06T11:51:38.935Z,29.70
2022-10-06T11:54:27.915Z,29.70
2022-10-06T11:56:57.488Z,29.60
2022-10-06T11:59:31.375Z,29.60
2022-10-06T12:02:03.188Z,29.50
2022-10-06T12:04:31.538Z,29.40
2022-10-06T12:07:00.749Z,29.50
2022-10-06T12:09:52.609Z,29.50
2022-10-06T12:13:06.295Z,29.60
2022-10-06T12:18:58.330Z,30.40
2022-10-06T12:21:34.043Z,30.60
2022-10-06T12:24:05.661Z,30.10
2022-10-06T12:26:38.596Z,30.60
2022-10-06T12:29:22.170Z,30.00
2022-10-06T12:31:54.786Z,29.80
2022-10-06T12:34:59.969Z,29.80
2022-10-06T12:37:41.517Z,29.70
2022-10-06T12:40:58.268Z,29.70
2022-10-06T12:43:51.089Z,29.60
2022-10-06T12:46:25.677Z,29.70
2022-10-06T12:49:05.915Z,29.90
2022-10-06T12:51:35.028Z,30.10
2022-10-06T12:54:06.486Z,30.00
2022-10-06T12:56:35.802Z,29.90
2022-10-06T12:59:24.513Z,29.80
2022-10-06T13:01:56.353Z,29.70
2022-10-06T13:04:45.739Z,29.70
2022-10-06T13:07:17.002Z,29.60
2022-10-06T13:09:45.143Z,29.50
2022-10-06T13:12:37.559Z,29.60
2022-10-06T13:15:20.089Z,29.70
2022-10-06T13:17:51.714Z,30.00
2022-10-06T13:20:37.352Z,30.10
2022-10-06T13:23:12.408Z,29.90
2022-10-06T13:25:44.331Z,29.80
2022-10-06T13:28:27.221Z,30.10
2022-10-06T13:30:56.709Z,29.70
2022-10-06T13:33:28.022Z,29.60
2022-10-06T13:35:56.295Z,29.50
2022-10-06T13:38:24.491Z,29.50
2022-10-06T13:41:17.087Z,29.60
2022-10-06T13:43:46.585Z,29.70
2022-10-06T13:46:16.450Z,29.90
2022-10-06T13:48:47.191Z,30.10
2022-10-06T13:51:17.816Z,29.90
2022-10-06T13:53:46.138Z,29.90
2022-10-06T13:56:34.698Z,29.80
2022-10-06T13:59:16.989Z,29.70
2022-10-06T14:01:45.263Z,29.60
2022-10-06T14:04:15.005Z,29.60
2022-10-06T14:06:50.314Z,29.50
2022-10-06T14:09:22.442Z,29.60
2022-10-06T14:11:50.624Z,29.80
2022-10-06T14:14:19.087Z,29.80
2022-10-06T14:16:51.674Z,30.10
2022-10-06T14:19:34.865Z,30.50
2022-10-06T14:22:03.642Z,30.80
2022-10-06T14:24:34.242Z,30.70
2022-10-06T14:27:03.110Z,30.40
2022-10-06T14:29:31.765Z,30.20
2022-10-06T14:32:08.334Z,30.10
2022-10-06T14:34:37.880Z,30.00
2022-10-06T14:37:06.104Z,29.90
2022-10-06T14:39:34.302Z,29.90
2022-10-06T14:42:02.554Z,29.80
2022-10-06T14:44:31.172Z,29.70
2022-10-06T14:46:59.655Z,29.90
2022-10-06T14:49:27.952Z,30.00
2022-10-06T14:51:57.473Z,30.00
2022-10-06T14:54:26.843Z,30.30
2022-10-06T14:56:55.317Z,30.00
2022-10-06T14:59:23.522Z,30.00
2022-10-06T15:01:52.448Z,29.90
2022-10-06T15:04:24.355Z,29.90
2022-10-06T15:07:11.082Z,29.80
2022-10-06T15:09:40.679Z,29.80
2022-10-06T15:12:08.929Z,29.70
2022-10-06T15:14:39.841Z,29.80
2022-10-06T15:17:08.262Z,30.00
2022-10-06T15:19:36.522Z,30.20
2022-10-06T15:22:06.350Z,30.40
2022-10-06T15:24:37.307Z,30.10
2022-10-06T15:27:25.480Z,30.00
2022-10-06T15:29:53.677Z,30.00
2022-10-06T15:32:22.605Z,29.90
2022-10-06T15:34:51.963Z,29.80
2022-10-06T15:37:20.380Z,29.80
2022-10-06T15:39:48.560Z,29.60
2022-10-06T15:42:21.580Z,29.60
2022-10-06T15:44:50.019Z,29.90
2022-10-06T15:47:18.261Z,30.10
2022-10-06T15:49:47.055Z,30.30
2022-10-06T15:52:17.021Z,30.20
2022-10-06T15:54:49.975Z,30.00
2022-10-06T15:57:21.299Z,30.00
2022-10-06T15:59:51.413Z,29.90
2022-10-06T16:02:20.248Z,29.90
2022-10-06T16:05:16.036Z,29.80
2022-10-06T16:07:44.195Z,29.70
2022-10-06T16:10:13.585Z,29.60
2022-10-06T16:12:43.246Z,29.90
2022-10-06T16:15:12.020Z,30.00
2022-10-06T16:17:40.194Z,30.30
2022-10-06T16:20:09.793Z,30.50
2022-10-06T16:22:39.641Z,30.80
2022-10-06T16:25:08.663Z,31.10
2022-10-06T16:27:40.225Z,30.80
2022-10-06T16:30:11.035Z,30.60
2022-10-06T16:32:39.553Z,30.30
2022-10-06T16:35:08.776Z,30.20
2022-10-06T16:37:37.061Z,30.10
2022-10-06T16:40:06.139Z,30.00
2022-10-06T16:42:34.475Z,30.00
2022-10-06T16:45:02.652Z,29.90
2022-10-06T16:47:32.236Z,29.90
2022-10-06T16:50:00.453Z,30.10
2022-10-06T16:52:28.701Z,30.10
2022-10-06T16:54:57.700Z,30.60
2022-10-06T16:57:26.085Z,30.30
2022-10-06T16:59:54.330Z,30.30
2022-10-06T17:02:23.544Z,30.10
2022-10-06T17:04:53.717Z,30.00
2022-10-06T17:07:22.069Z,30.00
2022-10-06T17:10:15.321Z,30.00
2022-10-06T17:12:38.818Z,29.90
2022-10-06T17:15:08.114Z,29.80
2022-10-06T17:17:36.702Z,30.00
2022-10-06T17:20:07.945Z,30.10
2022-10-06T17:22:36.313Z,30.40
2022-10-06T17:25:04.908Z,30.50
2022-10-06T17:27:36.082Z,30.30
2022-10-06T17:30:09.627Z,30.20
2022-10-06T17:32:38.479Z,30.00
2022-10-06T17:35:09.130Z,30.00
2022-10-06T17:37:40.406Z,29.90
2022-10-06T17:40:09.538Z,29.90
2022-10-06T17:42:38.546Z,29.80
2022-10-06T17:45:07.624Z,29.90
2022-10-06T17:47:35.929Z,30.10
2022-10-06T17:50:04.106Z,30.30
2022-10-06T17:52:35.670Z,30.60
2022-10-06T17:55:03.900Z,30.30
2022-10-06T17:57:32.115Z,30.20
2022-10-06T18:00:00.332Z,30.10
2022-10-06T18:02:28.615Z,30.00
2022-10-06T18:04:56.864Z,30.00
2022-10-06T18:07:25.139Z,29.90
2022-10-06T18:10:08.597Z,29.90
2022-10-06T18:12:38.541Z,29.80
2022-10-06T18:15:09.462Z,30.00
2022-10-06T18:17:37.727Z,30.40
2022-10-06T18:20:06.579Z,30.50
2022-10-06T18:22:34.738Z,30.80
2022-10-06T18:25:04.469Z,30.90
2022-10-06T18:27:33.475Z,31.10
2022-10-06T18:30:01.716Z,30.90
2022-10-06T18:38:07.211Z,30.40
2022-10-06T18:40:37.787Z,30.30
2022-10-06T18:43:06.259Z,30.10
2022-10-06T18:45:52.020Z,30.10
2022-10-06T18:48:49.332Z,30.00
2022-10-06T18:51:17.538Z,30.30
2022-10-06T18:53:45.799Z,30.60
2022-10-06T18:56:17.018Z,30.90
2022-10-06T18:58:45.525Z,30.70
2022-10-06T19:01:13.915Z,30.50
2022-10-06T19:03:42.201Z,30.40
2022-10-06T19:06:10.424Z,30.30
2022-10-06T19:08:38.837Z,30.10
2022-10-06T19:11:25.191Z,30.00
2022-10-06T19:13:57.658Z,30.00
2022-10-06T19:16:25.952Z,29.90
2022-10-06T19:18:54.619Z,30.00
2022-10-06T19:21:22.939Z,30.30
2022-10-06T19:23:51.447Z,30.60
2022-10-06T19:26:22.805Z,30.60
2022-10-06T19:28:53.701Z,30.40
2022-10-06T19:31:23.343Z,30.40
2022-10-06T19:33:51.485Z,30.20
2022-10-06T19:36:19.665Z,30.10
2022-10-06T19:38:47.914Z,30.10
2022-10-06T19:41:32.797Z,30.00
2022-10-06T19:44:02.551Z,30.00
2022-10-06T19:46:32.103Z,29.90
2022-10-06T19:49:05.567Z,30.30
2022-10-06T19:51:34.208Z,30.50
2022-10-06T19:54:02.697Z,30.60
2022-10-06T19:56:33.146Z,30.40
2022-10-06T19:59:01.395Z,30.30
2022-10-06T20:01:31.494Z,30.20
2022-10-06T20:03:59.896Z,30.10
2022-10-06T20:06:28.368Z,30.00
2022-10-06T20:08:57.791Z,30.00
2022-10-06T20:11:26.039Z,30.00
2022-10-06T20:13:54.299Z,30.40
2022-10-06T20:16:22.593Z,30.10
2022-10-06T20:18:52.418Z,30.40
2022-10-06T20:21:21.450Z,30.70
2022-10-06T20:23:49.826Z,30.90
2022-10-06T20:26:19.152Z,31.00
2022-10-06T20:28:47.804Z,31.20
2022-10-06T20:31:17.654Z,31.10
2022-10-06T20:33:45.865Z,30.90
2022-10-06T20:36:15.438Z,30.70
2022-10-06T20:39:00.746Z,30.60
2022-10-06T20:41:29.711Z,30.40
2022-10-06T20:43:57.899Z,30.30
2022-10-06T20:46:26.177Z,30.10
2022-10-06T20:48:54.388Z,30.10
2022-10-06T20:51:27.633Z,30.00
2022-10-06T20:53:56.028Z,30.50
2022-10-06T20:56:24.678Z,30.80
2022-10-06T20:58:52.853Z,30.80
2022-10-06T21:01:22.238Z,30.60
2022-10-06T21:03:53.145Z,30.50
2022-10-06T21:06:22.091Z,30.40
2022-10-06T21:08:52.029Z,30.30
2022-10-06T21:11:21.711Z,30.10
2022-10-06T21:13:52.573Z,30.00
2022-10-06T21:16:21.186Z,30.00
2022-10-06T21:18:49.641Z,29.90
2022-10-06T21:21:17.968Z,30.20
2022-10-06T21:23:47.919Z,31.10
2022-10-06T21:26:18.679Z,30.70
2022-10-06T21:28:47.133Z,30.60
2022-10-06T21:31:16.800Z,30.40
2022-10-06T21:33:45.858Z,30.30
2022-10-06T21:36:15.012Z,30.30
2022-10-06T21:38:43.395Z,30.10
2022-10-06T21:41:34.475Z,30.00
2022-10-06T21:44:04.971Z,30.00
2022-10-06T21:46:34.280Z,29.90
2022-10-06T21:49:02.828Z,30.00
2022-10-06T21:51:31.641Z,30.40
2022-10-06T21:54:00.511Z,30.70
2022-10-06T21:56:29.703Z,30.70
2022-10-06T21:58:58.191Z,30.40
2022-10-06T22:01:29.001Z,30.40
2022-10-06T22:03:57.437Z,30.30
2022-10-06T22:06:25.769Z,30.10
2022-10-06T22:08:54.138Z,30.00
2022-10-06T22:11:23.097Z,30.00
2022-10-06T22:13:52.291Z,30.00
2022-10-06T22:16:21.416Z,29.90
2022-10-06T22:18:51.359Z,30.20
2022-10-06T22:21:20.679Z,30.70
2022-10-06T22:23:51.714Z,30.70
2022-10-06T22:26:20.043Z,31.00
2022-10-06T22:28:48.917Z,31.10
2022-10-06T22:31:19.043Z,31.20
2022-10-06T22:33:52.850Z,31.00
2022-10-06T22:36:21.185Z,30.90
2022-10-06T22:38:49.515Z,30.70
2022-10-06T22:41:17.817Z,30.50
2022-10-06T22:43:46.173Z,30.30
2022-10-06T22:46:14.516Z,30.90
2022-10-06T22:48:42.929Z,30.10
2022-10-06T22:51:12.687Z,30.00
2022-10-06T22:53:41.004Z,30.30
2022-10-06T22:56:09.367Z,30.60
2022-10-06T22:58:38.999Z,30.90
2022-10-06T23:01:11.699Z,30.80
2022-10-06T23:03:40.203Z,30.70
2022-10-06T23:06:09.446Z,30.50
2022-10-06T23:08:39.822Z,30.30
2022-10-06T23:11:09.527Z,30.20
2022-10-06T23:13:37.922Z,30.10
2022-10-06T23:16:08.043Z,30.00
2022-10-06T23:18:37.501Z,30.00
2022-10-06T23:21:06.340Z,29.90
2022-10-06T23:23:34.675Z,30.20
2022-10-06T23:26:08.543Z,30.70
2022-10-06T23:28:36.973Z,30.70
2022-10-06T23:31:05.985Z,30.60
2022-10-06T23:33:34.525Z,30.40
2022-10-06T23:36:03.429Z,30.30
2022-10-06T23:38:31.784Z,30.20
2022-10-06T23:41:00.130Z,30.10
2022-10-06T23:43:29.819Z,30.00
2022-10-06T23:45:58.238Z,29.90
2022-10-06T23:48:26.669Z,29.90
2022-10-06T23:50:59.087Z,30.10
2022-10-06T23:53:27.616Z,30.50
2022-10-06T23:55:55.928Z,30.70
2022-10-06T23:58:24.357Z,30.60
